createdAt,value
2024-03-08T00:00:22.754Z,101697.28
2024-03-08T00:03:24.697Z,101693.84
2024-03-08T00:06:27.853Z,101686.94
2024-03-08T00:09:29.612Z,101649.94
2024-03-08T00:12:31.444Z,101690.38
2024-03-08T00:15:33.204Z,101593.13
2024-03-08T00:18:35.148Z,101687.78
2024-03-08T00:21:38.343Z,101705.88
2024-03-08T00:24:40.178Z,101652.50
2024-03-08T00:27:42.052Z,101681.75
2024-03-08T00:30:43.924Z,101684.34
2024-03-08T00:33:45.801Z,101686.94
2024-03-08T00:36:49.137Z,101682.63
2024-03-08T00:39:51.132Z,101673.16
2024-03-08T00:42:53.121Z,101673.16
2024-03-08T00:45:55.003Z,101649.94
2024-03-08T00:48:57.052Z,101613.78
2024-03-08T00:52:00.466Z,101619.78
2024-03-08T00:55:02.339Z,101674.88
2024-03-08T00:58:04.489Z,101663.69
2024-03-08T01:01:06.302Z,101661.13
2024-03-08T01:04:08.138Z,101667.13
2024-03-08T01:07:11.317Z,101586.22
2024-03-08T01:10:13.378Z,101503.63
2024-03-08T01:13:15.241Z,101628.41
2024-03-08T01:16:17.130Z,101656.81
2024-03-08T01:19:19.051Z,101654.22
2024-03-08T01:22:22.346Z,101655.97
2024-03-08T01:25:24.133Z,101464.13
2024-03-08T01:28:26.637Z,101650.78
2024-03-08T01:31:28.523Z,101614.63
2024-03-08T01:34:30.433Z,101581.94
2024-03-08T01:37:33.590Z,101639.59
2024-03-08T01:40:35.312Z,101637.88
2024-03-08T01:43:37.207Z,101636.16
2024-03-08T01:46:39.022Z,101609.47
2024-03-08T01:49:40.850Z,101629.28
2024-03-08T01:52:44.399Z,101628.41
2024-03-08T01:55:47.751Z,101575.94
2024-03-08T01:58:50.037Z,101621.53
2024-03-08T02:01:52.020Z,101618.94
2024-03-08T02:04:53.782Z,101612.94
2024-03-08T02:07:57.415Z,101608.63
2024-03-08T02:11:00.027Z,101611.22
2024-03-08T02:14:01.592Z,101616.38
2024-03-08T02:17:03.810Z,101581.97
2024-03-08T02:20:06.397Z,101615.50
2024-03-08T02:23:09.835Z,101616.38
2024-03-08T02:26:11.826Z,101609.50
2024-03-08T02:29:14.197Z,101408.25
2024-03-08T02:32:15.990Z,101603.47
2024-03-08T02:35:17.726Z,101576.81
2024-03-08T02:38:23.601Z,101618.97
2024-03-08T02:41:25.408Z,101595.72
2024-03-08T02:44:27.178Z,101596.59
2024-03-08T02:47:29.130Z,101573.34
2024-03-08T02:50:31.138Z,101413.41
2024-03-08T02:53:34.373Z,101525.19
2024-03-08T02:56:36.472Z,101593.13
2024-03-08T02:59:38.442Z,101592.25
2024-03-08T03:02:40.511Z,101433.19
2024-03-08T03:05:44.267Z,101588.81
2024-03-08T03:08:49.534Z,101591.41
2024-03-08T03:11:51.463Z,101584.53
2024-03-08T03:14:53.340Z,101582.81
2024-03-08T03:17:55.489Z,101588.84
2024-03-08T03:20:57.586Z,101581.94
2024-03-08T03:24:00.928Z,101596.56
2024-03-08T03:27:02.780Z,101575.94
2024-03-08T03:30:05.787Z,101575.94
2024-03-08T03:33:07.714Z,101529.47
2024-03-08T03:36:09.848Z,101544.97
2024-03-08T03:39:13.260Z,101574.22
2024-03-08T03:42:15.189Z,101527.75
2024-03-08T03:45:17.156Z,101567.34
2024-03-08T03:48:19.005Z,101557.03
2024-03-08T03:51:21.054Z,101577.66
2024-03-08T03:54:24.304Z,101537.22
2024-03-08T03:57:26.088Z,101520.03
2024-03-08T04:00:28.720Z,101563.03
2024-03-08T04:03:30.317Z,101557.00
2024-03-08T04:06:32.085Z,101563.03
2024-03-08T04:09:42.285Z,101557.88
2024-03-08T04:12:44.126Z,101497.69
2024-03-08T04:15:48.979Z,101557.88
2024-03-08T04:18:51.846Z,101492.53
2024-03-08T04:21:53.744Z,101489.94
2024-03-08T04:24:57.105Z,101566.47
2024-03-08T04:27:58.937Z,101549.28
2024-03-08T04:31:01.433Z,101541.50
2024-03-08T04:34:03.278Z,101538.06
2024-03-08T04:37:05.171Z,101483.06
2024-03-08T04:40:09.108Z,101536.38
2024-03-08T04:43:11.201Z,101407.41
2024-03-08T04:46:13.436Z,101461.56
2024-03-08T04:49:15.209Z,101518.28
2024-03-08T04:52:17.532Z,101542.38
2024-03-08T04:55:20.738Z,101532.06
2024-03-08T04:58:22.875Z,101520.03
2024-03-08T05:01:24.641Z,101524.31
2024-03-08T05:04:26.414Z,101523.44
2024-03-08T05:07:28.216Z,101508.84
2024-03-08T05:10:31.521Z,101494.22
2024-03-08T05:13:33.302Z,101517.44
2024-03-08T05:16:35.149Z,101506.25
2024-03-08T05:19:37.443Z,101508.84
2024-03-08T05:22:39.420Z,101415.16
2024-03-08T05:25:42.611Z,101501.97
2024-03-08T05:28:44.395Z,101496.81
2024-03-08T05:31:48.677Z,101497.66
2024-03-08T05:34:50.467Z,101486.50
2024-03-08T05:37:52.251Z,101489.94
2024-03-08T05:40:55.726Z,101496.81
2024-03-08T05:43:57.720Z,101453.84
2024-03-08T05:46:59.649Z,101465.84
2024-03-08T05:50:01.463Z,101495.94
2024-03-08T05:53:03.320Z,101410.88
2024-03-08T05:56:07.308Z,101446.97
2024-03-08T05:59:09.110Z,101495.09
2024-03-08T06:02:10.869Z,101495.09
2024-03-08T06:05:12.773Z,101458.97
2024-03-08T06:08:14.609Z,101495.97
2024-03-08T06:11:18.672Z,101495.97
2024-03-08T06:14:20.475Z,101490.78
2024-03-08T06:17:22.236Z,101490.81
2024-03-08T06:20:24.063Z,101511.44
2024-03-08T06:23:25.968Z,101498.53
2024-03-08T06:26:30.644Z,101496.81
2024-03-08T06:29:33.170Z,101492.53
2024-03-08T06:32:35.019Z,101453.81
2024-03-08T06:35:36.916Z,101491.63
2024-03-08T06:38:38.861Z,101465.84
2024-03-08T06:41:42.109Z,101490.81
2024-03-08T06:44:43.882Z,101471.88
2024-03-08T06:47:45.820Z,101477.03
2024-03-08T06:50:48.610Z,101499.38
2024-03-08T06:53:50.779Z,101491.66
2024-03-08T06:56:53.997Z,101371.34
2024-03-08T06:59:55.997Z,101496.78
2024-03-08T07:02:57.839Z,101294.06
2024-03-08T07:05:59.687Z,101460.69
2024-03-08T07:09:01.509Z,101497.66
2024-03-08T07:12:05.344Z,101435.78
2024-03-08T07:15:08.103Z,101492.47
2024-03-08T07:18:10.014Z,101495.91
2024-03-08T07:21:11.868Z,101475.25
2024-03-08T07:24:14.023Z,101486.38
2024-03-08T07:27:17.783Z,101488.13
2024-03-08T07:30:20.307Z,101487.22
2024-03-08T07:33:22.120Z,101492.38
2024-03-08T07:36:24.182Z,101462.31
2024-03-08T07:39:26.066Z,101376.41
2024-03-08T07:42:29.252Z,101339.50
2024-03-08T07:45:31.047Z,101400.44
2024-03-08T07:48:32.940Z,101488.00
2024-03-08T07:51:34.738Z,101433.00
2024-03-08T07:54:36.640Z,101484.50
2024-03-08T07:57:39.888Z,101398.59
2024-03-08T08:00:41.677Z,101478.41
2024-03-08T08:03:43.477Z,101479.19
2024-03-08T08:06:45.236Z,101483.53
2024-03-08T08:09:46.985Z,101458.63
2024-03-08T08:12:50.622Z,101446.59
2024-03-08T08:15:52.388Z,101467.94
2024-03-08T08:18:54.305Z,101464.47
2024-03-08T08:21:56.087Z,101471.25
2024-03-08T08:24:57.897Z,101429.84
2024-03-08T08:28:01.308Z,101424.47
2024-03-08T08:31:03.478Z,101435.50
2024-03-08T08:34:05.196Z,101449.69
2024-03-08T08:37:12.657Z,101422.94
2024-03-08T08:40:14.761Z,101460.56
2024-03-08T08:43:17.982Z,101455.22
2024-03-08T08:46:21.330Z,101455.84
2024-03-08T08:49:31.999Z,101324.41
2024-03-08T08:52:33.887Z,101429.47
2024-03-08T08:55:35.665Z,101456.66
2024-03-08T09:05:20.556Z,101441.69
2024-03-08T09:11:53.559Z,100824.28
2024-03-08T09:14:55.473Z,101304.69
2024-03-08T09:17:57.751Z,101443.84
2024-03-08T09:20:59.781Z,101427.91
2024-03-08T09:24:01.818Z,101177.03
2024-03-08T09:27:05.683Z,101216.75
2024-03-08T09:30:08.878Z,101414.09
2024-03-08T09:36:28.765Z,101398.94
2024-03-08T09:39:32.683Z,101400.28
2024-03-08T09:42:45.464Z,101397.66
2024-03-08T09:49:19.475Z,100776.13
2024-03-08T09:52:22.866Z,101152.53
2024-03-08T09:55:28.405Z,101386.09
2024-03-08T09:58:31.946Z,101374.44
2024-03-08T10:01:44.591Z,101372.50
2024-03-08T10:08:03.107Z,100906.56
2024-03-08T10:11:05.687Z,101331.25
2024-03-08T10:14:09.608Z,101371.16
2024-03-08T10:17:11.421Z,101358.50
2024-03-08T10:20:16.508Z,101358.19
2024-03-08T10:23:19.879Z,101354.41
2024-03-08T10:26:23.021Z,101317.69
2024-03-08T10:29:25.136Z,101274.75
2024-03-08T10:32:27.040Z,101347.06
2024-03-08T10:35:28.931Z,101349.06
2024-03-08T10:38:34.458Z,101109.13
2024-03-08T10:41:38.685Z,101341.84
2024-03-08T10:48:27.240Z,101245.47
2024-03-08T10:51:31.533Z,100862.44
2024-03-08T10:54:49.770Z,100779.75
2024-03-08T10:57:53.011Z,101274.25
2024-03-08T11:00:56.040Z,101331.19
2024-03-08T11:03:57.949Z,101319.44
2024-03-08T11:07:02.277Z,101320.09
2024-03-08T11:10:04.519Z,101310.94
2024-03-08T11:13:33.874Z,101298.78
2024-03-08T11:19:48.123Z,100825.63
2024-03-08T11:22:51.611Z,101254.16
2024-03-08T11:25:53.512Z,101296.84
2024-03-08T11:28:56.772Z,101306.19
2024-03-08T11:32:05.312Z,101286.75
2024-03-08T11:35:10.170Z,101186.78
2024-03-08T11:38:24.516Z,101295.16
2024-03-08T11:41:29.732Z,101286.72
2024-03-08T11:44:32.973Z,101288.47
2024-03-08T11:47:36.263Z,101273.22
2024-03-08T11:50:38.115Z,101233.81
2024-03-08T11:53:40.134Z,101287.28
2024-03-08T12:00:16.172Z,101245.53
2024-03-08T12:03:17.985Z,101263.28
2024-03-08T12:06:20.506Z,101267.78
2024-03-08T12:09:22.494Z,101204.44
2024-03-08T12:12:26.234Z,101197.63
2024-03-08T12:18:44.510Z,101083.97
2024-03-08T12:24:59.482Z,101246.22
2024-03-08T12:28:08.949Z,101155.91
2024-03-08T12:34:28.223Z,101221.06
2024-03-08T12:37:30.492Z,100850.16
2024-03-08T12:40:33.555Z,101213.19
2024-03-08T12:46:53.438Z,101209.25
2024-03-08T12:49:57.560Z,101112.41
2024-03-08T12:53:02.168Z,100939.91
2024-03-08T12:56:05.373Z,101198.47
2024-03-08T12:59:08.794Z,101194.22
2024-03-08T13:02:10.713Z,101186.13
2024-03-08T13:05:14.042Z,101075.00
2024-03-08T13:11:23.899Z,101175.41
2024-03-08T13:17:43.839Z,101166.03
2024-03-08T13:20:48.341Z,101167.16
2024-03-08T13:23:50.482Z,101145.41
2024-03-08T13:26:52.162Z,101150.38
2024-03-08T13:30:01.747Z,101151.22
2024-03-08T13:49:23.762Z,101140.53
2024-03-08T13:52:27.608Z,101038.09
2024-03-08T13:55:29.582Z,101084.47
2024-03-08T14:01:41.535Z,101119.34
2024-03-08T14:04:46.242Z,100891.66
2024-03-08T14:11:07.751Z,101113.69
2024-03-08T14:14:09.652Z,101104.28
2024-03-08T14:17:12.009Z,100947.81
2024-03-08T14:23:38.201Z,100805.16
2024-03-08T14:26:51.352Z,101106.88
2024-03-08T14:30:06.097Z,101087.03
2024-03-08T14:33:09.076Z,101092.47
2024-03-08T14:39:47.705Z,101051.50
2024-03-08T14:46:07.035Z,100758.22
2024-03-08T14:59:29.889Z,101066.00
2024-03-08T15:09:48.774Z,100670.09
2024-03-08T15:16:01.968Z,100806.25
2024-03-08T15:22:09.452Z,101049.75
2024-03-08T15:28:25.844Z,101041.16
2024-03-08T15:37:53.362Z,100663.13
2024-03-08T15:40:55.601Z,100891.50
2024-03-08T15:50:45.939Z,101006.97
2024-03-08T16:10:46.497Z,100987.41
2024-03-08T16:24:13.827Z,100982.84
2024-03-08T16:34:14.073Z,100987.00
2024-03-08T16:40:33.727Z,100992.66
2024-03-08T16:43:44.409Z,100483.44
2024-03-08T16:46:47.846Z,101006.22
2024-03-08T16:49:51.494Z,100814.59
2024-03-08T16:56:14.729Z,100992.88
2024-03-08T16:59:25.529Z,100845.84
2024-03-08T17:02:28.016Z,100591.75
2024-03-08T17:05:32.025Z,100929.19
2024-03-08T17:08:33.812Z,100999.88
2024-03-08T17:17:59.407Z,100934.72
2024-03-08T17:21:02.783Z,100814.59
2024-03-08T17:24:06.647Z,101004.56
2024-03-08T17:30:25.740Z,100420.50
2024-03-08T17:33:33.421Z,101007.47
2024-03-08T17:36:40.911Z,100420.09
2024-03-08T17:39:44.538Z,100994.34
2024-03-08T17:42:49.993Z,101008.75
2024-03-08T17:49:12.570Z,101008.19
2024-03-08T17:52:14.986Z,100920.16
2024-03-08T17:55:19.251Z,100847.84
2024-03-08T18:01:23.336Z,100766.16
2024-03-08T18:07:43.757Z,101002.53
2024-03-08T18:10:47.162Z,100947.16
2024-03-08T18:13:49.782Z,101002.06
2024-03-08T18:16:51.861Z,100995.38
2024-03-08T18:19:54.794Z,100971.72
2024-03-08T18:22:56.786Z,100750.50
2024-03-08T18:26:10.880Z,100996.19
2024-03-08T18:29:14.128Z,100943.81
2024-03-08T18:32:15.931Z,101002.97
2024-03-08T18:35:18.127Z,100990.19
2024-03-08T18:38:20.557Z,100994.09
2024-03-08T18:41:22.536Z,100897.13
2024-03-08T18:44:25.775Z,101000.19
2024-03-08T18:47:27.623Z,100991.38
2024-03-08T18:50:29.489Z,100990.84
2024-03-08T18:53:31.306Z,100888.09
2024-03-08T18:56:39.758Z,100987.50
2024-03-08T18:59:49.650Z,100987.22
2024-03-08T19:02:53.941Z,100992.06
2024-03-08T19:06:03.448Z,100964.06
2024-03-08T19:09:05.952Z,100864.78
2024-03-08T19:12:11.737Z,100987.53
2024-03-08T19:15:15.795Z,100991.13
2024-03-08T19:18:17.971Z,100984.06
2024-03-08T19:21:20.841Z,100976.31
2024-03-08T19:24:24.395Z,100992.84
2024-03-08T19:27:27.077Z,100989.63
2024-03-08T19:30:30.434Z,100989.63
2024-03-08T19:33:32.709Z,100949.38
2024-03-08T19:36:34.914Z,100967.16
2024-03-08T19:39:37.292Z,100920.41
2024-03-08T19:42:39.017Z,100991.53
2024-03-08T19:45:42.205Z,100989.59
2024-03-08T19:48:43.965Z,100983.69
2024-03-08T19:51:45.754Z,100944.59
2024-03-08T19:54:48.540Z,100979.25
2024-03-08T19:57:51.943Z,100968.97
2024-03-08T20:00:55.558Z,100954.88
2024-03-08T20:03:57.408Z,100981.44
2024-03-08T20:06:59.134Z,100981.34
2024-03-08T20:10:07.758Z,100961.41
2024-03-08T20:13:09.768Z,100970.38
2024-03-08T20:16:12.931Z,100965.94
2024-03-08T20:19:16.068Z,100965.25
2024-03-08T20:22:17.868Z,100903.28
2024-03-08T20:25:21.047Z,100810.69
2024-03-08T20:28:24.063Z,100915.56
2024-03-08T20:31:27.404Z,100796.16
2024-03-08T20:34:29.307Z,100959.66
2024-03-08T20:37:31.207Z,100963.84
2024-03-08T20:40:33.819Z,100958.72
2024-03-08T20:43:35.677Z,100958.63
2024-03-08T20:46:40.041Z,100951.59
2024-03-08T20:49:45.912Z,100931.19
2024-03-08T20:52:48.076Z,100948.25
2024-03-08T20:55:53.629Z,100914.41
2024-03-08T20:58:55.883Z,100942.63
2024-03-08T21:02:01.764Z,100887.28
2024-03-08T21:05:04.026Z,100946.84
2024-03-08T21:08:09.386Z,100943.31
2024-03-08T21:11:11.427Z,100863.22
2024-03-08T21:14:13.453Z,100923.91
2024-03-08T21:17:16.684Z,100856.75
2024-03-08T21:20:19.600Z,100798.25
2024-03-08T21:23:22.834Z,100774.47
2024-03-08T21:26:25.249Z,100800.44
2024-03-08T21:29:27.026Z,100935.66
2024-03-08T21:32:30.205Z,100932.16
2024-03-08T21:35:32.134Z,100933.78
2024-03-08T21:38:33.943Z,100935.66
2024-03-08T21:41:35.808Z,100947.81
2024-03-08T21:44:37.701Z,100928.75
2024-03-08T21:47:40.942Z,100865.81
2024-03-08T21:50:42.739Z,100928.88
2024-03-08T21:53:44.558Z,100925.19
2024-03-08T21:56:46.383Z,100925.09
2024-03-08T21:59:48.149Z,100927.59
2024-03-08T22:02:51.735Z,100913.13
2024-03-08T22:05:53.605Z,100931.13
2024-03-08T22:08:55.603Z,100931.91
2024-03-08T22:11:58.574Z,100927.66
2024-03-08T22:15:00.642Z,100919.09
2024-03-08T22:18:04.002Z,100877.47
2024-03-08T22:21:06.371Z,100930.38
2024-03-08T22:24:08.251Z,100927.91
2024-03-08T22:27:10.442Z,100932.28
2024-03-08T22:30:13.564Z,100940.88
2024-03-08T22:33:16.828Z,100932.06
2024-03-08T22:36:18.628Z,100927.66
2024-03-08T22:39:20.393Z,100923.47
2024-03-08T22:42:22.740Z,100926.97
2024-03-08T22:45:25.065Z,100925.25
2024-03-08T22:48:28.632Z,100923.63
2024-03-08T22:51:30.790Z,100929.66
2024-03-08T22:54:32.533Z,100877.75
2024-03-08T22:57:34.497Z,100902.16
2024-03-08T23:00:36.306Z,100939.09
2024-03-08T23:03:39.477Z,100891.16
2024-03-08T23:06:41.440Z,100921.91
2024-03-08T23:09:50.216Z,100926.22
2024-03-08T23:12:52.095Z,100896.63
2024-03-08T23:15:53.936Z,100918.69
2024-03-08T23:18:57.539Z,100916.22
2024-03-08T23:21:59.592Z,100871.06
2024-03-08T23:25:01.389Z,100908.50
2024-03-08T23:28:03.392Z,100904.97
2024-03-08T23:31:05.309Z,100903.19
2024-03-08T23:34:08.519Z,100862.28
2024-03-08T23:37:10.985Z,100897.25
2024-03-08T23:40:14.568Z,100740.44
2024-03-08T23:43:16.329Z,100725.91
2024-03-08T23:46:18.125Z,100881.78
2024-03-08T23:49:21.254Z,100858.88
2024-03-08T23:52:23.192Z,100877.47
2024-03-08T23:55:25.226Z,100868.81
2024-03-08T23:58:27.038Z,100867.84
